This is the latest recevied weather packets stored in our database for station/object DO3HUM-5. If no packets are shown the sender has not sent any weather packets the latest 10 day(s).
| Time | Temp. | Humidity | Pressure | Rain* | Wind** | Luminosity | Snow |
|---|---|---|---|---|---|---|---|
| 1777537267 | 13.33° C | 38% | 1040.5 hPa | 0 mm | - | - | - |
| 1777536665 | 12.78° C | 37% | 1040.5 hPa | 0 mm | - | - | - |
| 1777536062 | 13.33° C | 37% | 1040.6 hPa | 0 mm | - | - | - |
| 1777535461 | 11.67° C | 42% | 1040.6 hPa | 0 mm | - | - | - |
| 1777534854 | 11.67° C | 41% | 1040.5 hPa | 0 mm | - | - | - |
| 1777534251 | 11.67° C | 40% | 1040.5 hPa | 0 mm | - | - | - |
| 1777533648 | 10.56° C | 41% | 1040.4 hPa | 0 mm | - | - | - |
| 1777533045 | 10° C | 48% | 1040.5 hPa | 0 mm | - | - | - |
| 1777532443 | 10° C | 49% | 1040.5 hPa | 0 mm | - | - | - |
| 1777531841 | 10° C | 52% | 1040.4 hPa | 0 mm | - | - | - |
| 1777531237 | 8.89° C | 52% | 1040.5 hPa | 0 mm | - | - | - |
| 1777530634 | 7.78° C | 60% | 1040.5 hPa | 0 mm | - | - | - |
| 1777530031 | 8.89° C | 54% | 1040.4 hPa | 0 mm | - | - | - |
| 1777529428 | 7.78° C | 55% | 1040.4 hPa | 0 mm | - | - | - |
| 1777528825 | 7.78° C | 54% | 1040.4 hPa | 0 mm | - | - | - |
| 1777528222 | 5.56° C | 63% | 1040.4 hPa | 0 mm | - | - | - |
| 1777527620 | 5° C | 65% | 1040.4 hPa | 0 mm | - | - | - |
| 1777527018 | 6.67° C | 59% | 1040.3 hPa | 0 mm | - | - | - |
| 1777526474 | 5° C | 62% | 1040.2 hPa | 0 mm | - | - | - |
| 1777525871 | 3.33° C | 73% | 1040.1 hPa | 0 mm | - | - | - |
| 1777525280 | -0.56° C | 89% | 1040.1 hPa | 0 mm | - | - | - |
| 1777524666 | -0.56° C | 88% | 1040 hPa | 0 mm | - | - | - |
| 1777524064 | -1.11° C | 88% | 1039.8 hPa | 0 mm | - | - | - |
| 1777523460 | -1.67° C | 88% | 1039.7 hPa | 0 mm | - | - | - |
| 1777522857 | -1.67° C | 88% | 1039.6 hPa | 0 mm | - | - | - |
* Rain latest hour (hover to see other rain measurements)
** Current wind speed in m/s (hover to see current wind gust speed)